Time;durP1;ratioP1;P1;durP2;ratioP2;P2;SDS_P1;SDS_P2;PMS_P1;PMS_P2;Temp;Humidity;BMP_temperature;BMP_pressure;BME280_temperature;BME280_humidity;BME280_pressure;Samples;Min_cycle;Max_cycle;Signal;HPM_P1;HPM_P2
2021/12/12 00:01:54;;;;;;;3.28;2.97;;;;;;;;;;4991710;28;20099;-58
2021/12/12 00:04:32;;;;;;;3.75;3.20;;;;;;;;;;4984762;28;20042;-61
2021/12/12 00:07:02;;;;;;;5.05;3.63;;;;;;;;;;4994440;28;20053;-62
2021/12/12 00:09:43;;;;;;;3.28;2.95;;;;;;;;;;4993974;28;20076;-62
2021/12/12 00:12:17;;;;;;;3.85;3.50;;;;;;;;;;4994164;28;20046;-61
2021/12/12 00:14:45;;;;;;;3.80;3.35;;;;;;;;;;4993110;28;20212;-61
2021/12/12 00:17:13;;;;;;;3.60;3.08;;;;;;;;;;4979429;28;20517;-61
2021/12/12 00:19:41;;;;;;;4.95;3.28;;;;;;;;;;4994201;28;20117;-61
2021/12/12 00:22:12;;;;;;;4.07;3.67;;;;;;;;;;4994056;28;20046;-55
2021/12/12 00:24:40;;;;;;;6.30;3.33;;;;;;;;;;4994372;28;20042;-59
2021/12/12 00:27:07;;;;;;;4.70;3.80;;;;;;;;;;4991914;28;20162;-59
2021/12/12 00:29:35;;;;;;;2.97;2.78;;;;;;;;;;4974167;28;20485;-60
2021/12/12 00:32:06;;;;;;;4.07;3.67;;;;;;;;;;4991316;28;20497;-60
2021/12/12 00:34:37;;;;;;;4.05;3.28;;;;;;;;;;4991794;28;20042;-60
2021/12/12 00:37:07;;;;;;;6.15;4.78;;;;;;;;;;4991809;28;20050;-60
2021/12/12 00:39:38;;;;;;;5.57;4.35;;;;;;;;;;4991726;28;20058;-60
2021/12/12 00:42:16;;;;;;;5.55;4.18;;;;;;;;;;4993463;28;20046;-60
2021/12/12 00:44:46;;;;;;;4.40;3.35;;;;;;;;;;5013150;28;20120;-60
2021/12/12 00:47:14;;;;;;;4.30;3.90;;;;;;;;;;5012543;28;20042;-59
2021/12/12 00:50:04;;;;;;;4.35;3.40;;;;;;;;;;5012743;28;20492;-60
2021/12/12 00:52:31;;;;;;;3.88;3.35;;;;;;;;;;4995509;28;20133;-60
2021/12/12 00:54:58;;;;;;;3.38;3.08;;;;;;;;;;5012402;28;20038;-60
2021/12/12 00:57:25;;;;;;;3.33;3.03;;;;;;;;;;5012638;28;20068;-60
2021/12/12 00:59:52;;;;;;;3.92;3.25;;;;;;;;;;5012582;28;20045;-60
2021/12/12 01:02:24;;;;;;;8.35;3.25;;;;;;;;;;5012827;28;20046;-61
2021/12/12 01:04:55;;;;;;;4.63;4.00;;;;;;;;;;5012456;28;20394;-61
2021/12/12 01:07:32;;;;;;;5.45;4.10;;;;;;;;;;5012917;28;20049;-61
2021/12/12 01:10:20;;;;;;;5.05;4.03;;;;;;;;;;5012492;28;20060;-60
2021/12/12 01:12:47;;;;;;;3.95;3.65;;;;;;;;;;5012206;28;20041;-60
2021/12/12 01:15:26;;;;;;;3.65;3.08;;;;;;;;;;5012081;28;20052;-60
2021/12/12 01:17:56;;;;;;;4.80;3.83;;;;;;;;;;5012941;28;20048;-60
2021/12/12 01:20:49;;;;;;;3.92;3.53;;;;;;;;;;5012418;28;20100;-60
2021/12/12 01:23:19;;;;;;;5.18;3.45;;;;;;;;;;4980706;28;20061;-61
2021/12/12 01:25:48;;;;;;;4.75;3.65;;;;;;;;;;5009269;28;20038;-60
2021/12/12 01:28:19;;;;;;;4.80;4.35;;;;;;;;;;5012456;28;20080;-60
2021/12/12 01:30:48;;;;;;;5.35;4.38;;;;;;;;;;5012599;28;20046;-61
2021/12/12 01:33:26;;;;;;;4.70;3.92;;;;;;;;;;5012469;28;20104;-61
2021/12/12 01:35:53;;;;;;;5.57;4.18;;;;;;;;;;5012978;28;20049;-60
2021/12/12 01:41:05;;;;;;;3.58;2.95;;;;;;;;;;5012439;28;20085;-60
2021/12/12 01:43:45;;;;;;;4.22;3.35;;;;;;;;;;5012387;28;20394;-61
2021/12/12 01:46:35;;;;;;;3.63;3.30;;;;;;;;;;4993017;28;20133;-60
2021/12/12 01:49:21;;;;;;;3.40;3.10;;;;;;;;;;4993010;28;20050;-60
2021/12/12 01:51:49;;;;;;;3.08;2.78;;;;;;;;;;4984696;28;20108;-61
2021/12/12 01:54:21;;;;;;;4.68;3.33;;;;;;;;;;4992724;28;20038;-61
2021/12/12 01:56:54;;;;;;;4.55;4.15;;;;;;;;;;5012039;28;20057;-60
2021/12/12 01:59:23;;;;;;;5.53;3.20;;;;;;;;;;4986920;28;20413;-61
2021/12/12 02:02:10;;;;;;;4.18;3.70;;;;;;;;;;4991562;28;20109;-61
2021/12/12 02:04:49;;;;;;;4.70;4.20;;;;;;;;;;4991383;28;20070;-61
2021/12/12 02:07:21;;;;;;;3.53;3.00;;;;;;;;;;4992794;28;20378;-60
2021/12/12 02:09:48;;;;;;;3.42;3.13;;;;;;;;;;4975002;28;20386;-60
2021/12/12 02:12:19;;;;;;;3.92;3.53;;;;;;;;;;4992761;28;20039;-58
2021/12/12 02:14:47;;;;;;;3.58;3.15;;;;;;;;;;4992815;28;20038;-60
2021/12/12 02:17:22;;;;;;;3.47;2.95;;;;;;;;;;4992281;28;20050;-60
2021/12/12 02:36:12;;;;;;;3.55;3.10;;;;;;;;;;4996041;28;20050;-61
2021/12/12 02:38:40;;;;;;;3.97;3.58;;;;;;;;;;4995485;28;20134;-61
2021/12/12 02:41:10;;;;;;;3.45;3.15;;;;;;;;;;4995763;28;20054;-61
2021/12/12 02:43:48;;;;;;;3.15;2.88;;;;;;;;;;4995669;28;20528;-61
2021/12/12 02:46:18;;;;;;;4.22;3.80;;;;;;;;;;4996108;28;20401;-61
2021/12/12 02:48:47;;;;;;;3.80;3.50;;;;;;;;;;4995136;28;20056;-62
2021/12/12 02:51:17;;;;;;;3.90;3.10;;;;;;;;;;4995887;28;20042;-61
2021/12/12 02:53:52;;;;;;;4.07;3.67;;;;;;;;;;4995540;28;20089;-60
2021/12/12 02:56:24;;;;;;;3.28;2.85;;;;;;;;;;4995894;28;20046;-61
2021/12/12 02:58:52;;;;;;;3.35;3.05;;;;;;;;;;4995230;28;20046;-61
2021/12/12 03:01:28;;;;;;;3.85;3.55;;;;;;;;;;4995782;28;20070;-60
2021/12/12 03:03:55;;;;;;;5.57;3.58;;;;;;;;;;4995297;28;20045;-60
2021/12/12 03:06:26;;;;;;;3.80;3.40;;;;;;;;;;4995135;28;20564;-61
2021/12/12 03:08:58;;;;;;;3.58;3.10;;;;;;;;;;4995412;28;20089;-60
2021/12/12 03:11:27;;;;;;;3.63;3.33;;;;;;;;;;4994696;28;20050;-60
2021/12/12 03:13:55;;;;;;;3.67;2.92;;;;;;;;;;4995200;28;20053;-60
2021/12/12 03:16:23;;;;;;;7.22;5.53;;;;;;;;;;4994850;28;20046;-61
2021/12/12 03:18:50;;;;;;;6.97;4.88;;;;;;;;;;4995525;28;20046;-60
2021/12/12 03:21:32;;;;;;;10.35;4.70;;;;;;;;;;4994612;28;20050;-60
2021/12/12 03:24:06;;;;;;;4.15;3.22;;;;;;;;;;4995037;28;20050;-60
2021/12/12 03:26:34;;;;;;;7.17;3.93;;;;;;;;;;4994686;28;20629;-61
2021/12/12 03:29:04;;;;;;;5.18;3.72;;;;;;;;;;4994764;28;20441;-60
2021/12/12 03:31:34;;;;;;;3.88;3.58;;;;;;;;;;4994578;28;20100;-61
2021/12/12 03:34:08;;;;;;;3.70;3.30;;;;;;;;;;4994673;28;20047;-61
2021/12/12 03:36:35;;;;;;;5.47;3.83;;;;;;;;;;4994822;28;20042;-60
2021/12/12 03:39:24;;;;;;;9.23;4.65;;;;;;;;;;4991381;28;20061;-60
2021/12/12 03:41:54;;;;;;;9.07;6.43;;;;;;;;;;4985956;28;20045;-61
2021/12/12 03:44:23;;;;;;;6.43;4.50;;;;;;;;;;5013335;23;20049;-60
2021/12/12 03:46:55;;;;;;;5.65;3.17;;;;;;;;;;5034054;28;20049;-59
2021/12/12 03:49:23;;;;;;;3.65;3.35;;;;;;;;;;5033257;28;20049;-59
2021/12/12 03:51:51;;;;;;;4.68;3.63;;;;;;;;;;5033646;28;20056;-59
2021/12/12 03:54:18;;;;;;;5.97;3.67;;;;;;;;;;5033069;28;20053;-59
2021/12/12 03:56:46;;;;;;;8.20;5.55;;;;;;;;;;5033326;28;20052;-59
2021/12/12 03:59:14;;;;;;;5.63;4.13;;;;;;;;;;5033349;28;20041;-59
2021/12/12 04:01:48;;;;;;;4.75;4.13;;;;;;;;;;5033306;28;20045;-59
2021/12/12 04:04:20;;;;;;;5.13;4.25;;;;;;;;;;5033188;28;20416;-59
2021/12/12 04:06:48;;;;;;;4.15;3.55;;;;;;;;;;5033142;28;20041;-59
2021/12/12 04:09:16;;;;;;;7.60;3.67;;;;;;;;;;5033162;28;20523;-59
2021/12/12 04:11:47;;;;;;;5.10;4.60;;;;;;;;;;5032791;28;20064;-59
2021/12/12 04:14:14;;;;;;;4.45;3.42;;;;;;;;;;5033392;28;20041;-60
2021/12/12 04:16:44;;;;;;;5.03;3.75;;;;;;;;;;5033135;28;20049;-59
2021/12/12 04:19:12;;;;;;;4.55;3.85;;;;;;;;;;5033151;28;20377;-59
2021/12/12 04:21:40;;;;;;;4.70;3.78;;;;;;;;;;5026470;28;20099;-59
2021/12/12 04:24:08;;;;;;;4.35;3.50;;;;;;;;;;5033316;28;20045;-59
2021/12/12 04:26:38;;;;;;;5.35;4.22;;;;;;;;;;5032853;28;20045;-59
2021/12/12 04:29:07;;;;;;;4.18;3.38;;;;;;;;;;5033207;28;20072;-59
2021/12/12 04:31:36;;;;;;;3.97;3.53;;;;;;;;;;5032732;28;20500;-59
2021/12/12 04:34:04;;;;;;;4.63;3.70;;;;;;;;;;5033095;28;20045;-59
2021/12/12 04:36:38;;;;;;;3.58;3.28;;;;;;;;;;5025903;28;20042;-59
2021/12/12 04:39:15;;;;;;;6.20;3.08;;;;;;;;;;5012350;28;20038;-59
2021/12/12 04:41:46;;;;;;;3.22;2.90;;;;;;;;;;5002229;28;20035;-60
2021/12/12 04:44:20;;;;;;;3.63;2.90;;;;;;;;;;4979253;28;20050;-59
2021/12/12 04:49:55;;;;;;;3.22;2.92;;;;;;;;;;4987394;28;20093;-59
2021/12/12 04:52:49;;;;;;;4.18;3.78;;;;;;;;;;4995118;28;20046;-59
2021/12/12 04:55:25;;;;;;;3.05;2.50;;;;;;;;;;4985855;28;20052;-60
2021/12/12 04:58:03;;;;;;;4.18;3.35;;;;;;;;;;5004305;28;20049;-59
2021/12/12 05:00:52;;;;;;;3.70;3.03;;;;;;;;;;5006235;28;20054;-59
2021/12/12 05:03:34;;;;;;;4.00;3.47;;;;;;;;;;5009465;28;20053;-59
2021/12/12 05:06:07;;;;;;;3.05;2.78;;;;;;;;;;4977733;28;20048;-59
2021/12/12 05:08:47;;;;;;;3.35;3.03;;;;;;;;;;5008735;28;20053;-60
2021/12/12 05:11:49;;;;;;;3.95;3.55;;;;;;;;;;4986474;28;20060;-59
2021/12/12 05:14:22;;;;;;;3.55;3.25;;;;;;;;;;5004605;28;20049;-59
2021/12/12 05:17:03;;;;;;;4.23;3.83;;;;;;;;;;5007046;28;20122;-60
2021/12/12 05:19:30;;;;;;;4.93;3.95;;;;;;;;;;5008132;28;20037;-59
2021/12/12 05:22:03;;;;;;;2.97;2.75;;;;;;;;;;5009750;28;20080;-59
2021/12/12 05:24:30;;;;;;;3.70;3.30;;;;;;;;;;4994990;28;20128;-59
2021/12/12 05:27:04;;;;;;;2.95;2.75;;;;;;;;;;4993208;28;20038;-59
2021/12/12 05:29:44;;;;;;;4.03;3.33;;;;;;;;;;5008690;28;20428;-60
2021/12/12 05:32:13;;;;;;;4.03;3.30;;;;;;;;;;4989595;28;20081;-61
2021/12/12 05:34:42;;;;;;;3.80;3.17;;;;;;;;;;5010263;28;20038;-60
2021/12/12 05:37:11;;;;;;;3.58;3.10;;;;;;;;;;5008599;28;20072;-60
2021/12/12 05:39:39;;;;;;;2.90;2.65;;;;;;;;;;4980524;28;20516;-61
2021/12/12 05:42:06;;;;;;;4.30;2.95;;;;;;;;;;4988270;28;20042;-60
2021/12/12 05:44:33;;;;;;;3.20;2.90;;;;;;;;;;5012068;28;20050;-61
2021/12/12 05:47:03;;;;;;;2.90;2.65;;;;;;;;;;5012271;28;20046;-61
2021/12/12 05:49:32;;;;;;;3.83;2.72;;;;;;;;;;5012259;28;20392;-60
2021/12/12 05:52:00;;;;;;;2.92;2.72;;;;;;;;;;5012615;28;20062;-60
2021/12/12 05:54:28;;;;;;;3.22;2.53;;;;;;;;;;5011952;28;20073;-60
2021/12/12 05:56:55;;;;;;;2.70;2.50;;;;;;;;;;5012407;28;20050;-61
2021/12/12 05:59:22;;;;;;;2.78;2.45;;;;;;;;;;5015955;28;20053;-61
2021/12/12 06:01:50;;;;;;;3.03;2.83;;;;;;;;;;4998603;28;20034;-61
2021/12/12 06:04:18;;;;;;;3.28;2.97;;;;;;;;;;5015831;28;20120;-60
2021/12/12 06:06:46;;;;;;;4.03;3.63;;;;;;;;;;4998319;28;20053;-60
2021/12/12 06:09:15;;;;;;;5.45;3.97;;;;;;;;;;4998330;28;20121;-60
2021/12/12 06:11:46;;;;;;;3.35;3.05;;;;;;;;;;5015586;28;20045;-60
2021/12/12 06:14:14;;;;;;;2.92;2.60;;;;;;;;;;4998253;28;20042;-60
2021/12/12 06:16:42;;;;;;;3.28;3.03;;;;;;;;;;5015617;28;20046;-60
2021/12/12 06:19:13;;;;;;;2.88;2.63;;;;;;;;;;4998431;28;20060;-60
2021/12/12 06:21:40;;;;;;;3.33;3.03;;;;;;;;;;4997838;28;20049;-61
2021/12/12 06:24:08;;;;;;;3.15;2.75;;;;;;;;;;5015654;28;20041;-60
2021/12/12 06:26:37;;;;;;;3.78;2.90;;;;;;;;;;5015076;28;20042;-60
2021/12/12 06:29:05;;;;;;;2.90;2.70;;;;;;;;;;5015489;28;20046;-60
2021/12/12 06:31:35;;;;;;;3.08;2.88;;;;;;;;;;5015512;28;20133;-60
2021/12/12 06:34:02;;;;;;;3.00;2.70;;;;;;;;;;5015842;28;20042;-60
2021/12/12 06:36:31;;;;;;;4.00;3.20;;;;;;;;;;5015554;28;20381;-60
2021/12/12 06:38:58;;;;;;;3.63;3.30;;;;;;;;;;5015308;28;20049;-60
2021/12/12 06:41:25;;;;;;;2.80;2.42;;;;;;;;;;5015065;28;20064;-60
2021/12/12 06:43:53;;;;;;;3.38;3.08;;;;;;;;;;5015184;28;20045;-59
2021/12/12 06:46:20;;;;;;;2.85;2.65;;;;;;;;;;5014937;28;20061;-60
2021/12/12 06:48:48;;;;;;;2.25;2.13;;;;;;;;;;5015096;28;20417;-60
2021/12/12 06:51:15;;;;;;;3.03;2.78;;;;;;;;;;4997953;28;20042;-60
2021/12/12 06:53:44;;;;;;;2.60;2.40;;;;;;;;;;4997386;28;20041;-60
2021/12/12 06:56:17;;;;;;;4.70;3.47;;;;;;;;;;5014849;28;20096;-60
2021/12/12 06:58:45;;;;;;;2.97;2.58;;;;;;;;;;5014904;28;20637;-60
2021/12/12 07:01:18;;;;;;;2.78;2.33;;;;;;;;;;4997809;28;20100;-60
2021/12/12 07:03:46;;;;;;;2.65;2.45;;;;;;;;;;5014999;28;20050;-60
2021/12/12 07:06:17;;;;;;;2.53;2.28;;;;;;;;;;5020181;28;20137;-61
2021/12/12 07:08:44;;;;;;;2.78;2.50;;;;;;;;;;5007602;28;20057;-60
2021/12/12 07:11:18;;;;;;;2.25;2.05;;;;;;;;;;4987684;28;20096;-60
2021/12/12 07:13:47;;;;;;;2.97;2.70;;;;;;;;;;5011995;28;20130;-62
2021/12/12 07:16:14;;;;;;;3.00;2.40;;;;;;;;;;5013718;28;20041;-62
2021/12/12 07:18:42;;;;;;;2.58;2.38;;;;;;;;;;5011788;28;20124;-61
2021/12/12 07:21:12;;;;;;;3.00;2.67;;;;;;;;;;5009688;28;20061;-63
2021/12/12 07:23:41;;;;;;;7.07;2.63;;;;;;;;;;5010130;28;20428;-64
2021/12/12 07:26:10;;;;;;;2.60;2.40;;;;;;;;;;5011005;28;20104;-63
2021/12/12 07:28:38;;;;;;;2.97;2.50;;;;;;;;;;5008764;28;20050;-63
2021/12/12 07:31:08;;;;;;;4.10;2.75;;;;;;;;;;5010049;28;20524;-62
2021/12/12 07:33:36;;;;;;;2.92;2.72;;;;;;;;;;5011594;28;20096;-63
2021/12/12 07:36:05;;;;;;;2.80;2.45;;;;;;;;;;5012209;28;20049;-63
2021/12/12 07:38:33;;;;;;;2.42;2.22;;;;;;;;;;4989077;28;20269;-62
2021/12/12 07:41:01;;;;;;;6.72;2.70;;;;;;;;;;5011978;28;20042;-61
2021/12/12 07:43:30;;;;;;;4.15;3.20;;;;;;;;;;5010984;28;20049;-63
2021/12/12 07:45:57;;;;;;;2.60;2.40;;;;;;;;;;5009283;28;20049;-62
2021/12/12 07:48:24;;;;;;;2.47;2.28;;;;;;;;;;5007400;28;20096;-67
2021/12/12 07:50:52;;;;;;;2.60;2.00;;;;;;;;;;5016416;28;20476;-68
2021/12/12 07:53:19;;;;;;;2.75;2.55;;;;;;;;;;5018651;28;20041;-67
2021/12/12 07:55:47;;;;;;;2.58;2.20;;;;;;;;;;5016472;28;20043;-67
2021/12/12 07:58:16;;;;;;;2.40;2.20;;;;;;;;;;5020969;28;20049;-66
2021/12/12 08:00:46;;;;;;;2.60;2.40;;;;;;;;;;5024749;28;20090;-70
2021/12/12 08:03:14;;;;;;;3.00;2.53;;;;;;;;;;5017471;28;20119;-67
2021/12/12 08:05:42;;;;;;;2.50;2.20;;;;;;;;;;5016581;28;20046;-67
2021/12/12 08:08:12;;;;;;;3.25;2.60;;;;;;;;;;5012629;28;20042;-68
2021/12/12 08:10:43;;;;;;;2.97;2.70;;;;;;;;;;5007847;28;20554;-67
2021/12/12 08:13:11;;;;;;;5.78;4.00;;;;;;;;;;5011474;28;20049;-69
2021/12/12 08:15:39;;;;;;;5.57;4.18;;;;;;;;;;5009407;28;20038;-70
2021/12/12 08:18:09;;;;;;;3.65;3.10;;;;;;;;;;5013298;28;20034;-69
2021/12/12 08:20:37;;;;;;;3.78;2.80;;;;;;;;;;5020072;28;20041;-69
2021/12/12 08:23:05;;;;;;;2.50;2.30;;;;;;;;;;5022901;28;20045;-69
2021/12/12 08:25:32;;;;;;;3.28;3.03;;;;;;;;;;5018952;28;20080;-70
2021/12/12 08:28:01;;;;;;;3.13;2.83;;;;;;;;;;4990426;28;20048;-69
2021/12/12 08:30:29;;;;;;;2.63;2.42;;;;;;;;;;5015919;28;20030;-69
2021/12/12 08:32:57;;;;;;;2.72;2.50;;;;;;;;;;5018181;28;20228;-69
2021/12/12 08:35:25;;;;;;;3.72;3.03;;;;;;;;;;5019537;28;20033;-68
2021/12/12 08:37:53;;;;;;;3.33;3.03;;;;;;;;;;5020251;28;20045;-67
2021/12/12 08:40:26;;;;;;;2.53;2.33;;;;;;;;;;5009580;28;20069;-66
2021/12/12 08:42:54;;;;;;;2.50;2.30;;;;;;;;;;5017896;28;20033;-68
2021/12/12 08:45:25;;;;;;;2.67;2.47;;;;;;;;;;5018646;28;20054;-70
2021/12/12 08:47:53;;;;;;;3.53;2.90;;;;;;;;;;5019728;28;20041;-68
2021/12/12 08:50:24;;;;;;;3.83;2.97;;;;;;;;;;5020700;28;20065;-67
2021/12/12 08:52:51;;;;;;;2.58;2.38;;;;;;;;;;5022208;28;20042;-69
2021/12/12 08:55:23;;;;;;;2.83;2.20;;;;;;;;;;5019473;28;20057;-70
2021/12/12 08:58:00;;;;;;;4.25;3.03;;;;;;;;;;5004297;28;20566;-70
2021/12/12 09:00:39;;;;;;;3.42;3.13;;;;;;;;;;5019688;28;20049;-68
2021/12/12 09:03:08;;;;;;;4.82;3.67;;;;;;;;;;5021841;28;20048;-65
2021/12/12 09:05:38;;;;;;;4.35;3.50;;;;;;;;;;5017930;28;20037;-64
2021/12/12 09:08:28;;;;;;;4.57;3.50;;;;;;;;;;5015205;28;20041;-64
2021/12/12 09:11:05;;;;;;;5.07;4.00;;;;;;;;;;4997245;28;20041;-69
2021/12/12 09:13:44;;;;;;;8.00;5.22;;;;;;;;;;5009328;28;20042;-70
2021/12/12 09:16:18;;;;;;;6.35;4.28;;;;;;;;;;4987497;28;20033;-64
2021/12/12 09:18:52;;;;;;;10.77;5.35;;;;;;;;;;4976683;28;20057;-67
2021/12/12 09:21:27;;;;;;;11.53;7.40;;;;;;;;;;4981812;28;20096;-69
2021/12/12 09:24:10;;;;;;;5.72;4.03;;;;;;;;;;4981962;28;20050;-77
2021/12/12 09:26:43;;;;;;;7.00;3.80;;;;;;;;;;4979778;28;20043;-63
2021/12/12 09:29:22;;;;;;;3.45;2.33;;;;;;;;;;4995511;28;20043;-63
2021/12/12 09:32:00;;;;;;;2.10;1.95;;;;;;;;;;4995682;28;20046;-61
2021/12/12 09:34:35;;;;;;;3.45;3.03;;;;;;;;;;4999894;28;20042;-57
2021/12/12 09:37:18;;;;;;;2.50;2.30;;;;;;;;;;5010746;28;20046;-58
2021/12/12 09:39:57;;;;;;;3.90;2.78;;;;;;;;;;4987230;28;20124;-60
2021/12/12 09:42:47;;;;;;;;;;;;;;;;;;4980071;28;20121;-60
2021/12/12 09:45:28;;;;;;;2.38;1.88;;;;;;;;;;4984445;28;20426;-59
2021/12/12 09:53:55;;;;;;;6.45;3.65;;;;;;;;;;4997586;28;20048;-57
2021/12/12 09:56:34;;;;;;;3.28;2.83;;;;;;;;;;5009941;28;20046;-57
2021/12/12 09:59:43;;;;;;;4.10;3.20;;;;;;;;;;5016127;28;20109;-55
2021/12/12 10:02:35;;;;;;;3.80;2.50;;;;;;;;;;5012668;28;20054;-58
2021/12/12 10:05:16;;;;;;;3.28;2.63;;;;;;;;;;5003787;28;20460;-58
2021/12/12 10:08:01;;;;;;;3.58;2.55;;;;;;;;;;5009353;28;20428;-58
2021/12/12 10:10:46;;;;;;;2.22;2.03;;;;;;;;;;5014676;28;20043;-55
2021/12/12 10:13:28;;;;;;;3.60;2.35;;;;;;;;;;5009383;28;20047;-56
2021/12/12 10:16:03;;;;;;;3.38;2.60;;;;;;;;;;5008368;28;20042;-58
2021/12/12 10:18:48;;;;;;;5.90;2.90;;;;;;;;;;5009545;28;20049;-58
2021/12/12 10:21:41;;;;;;;4.22;2.65;;;;;;;;;;5009383;28;20061;-58
2021/12/12 10:24:28;;;;;;;3.70;2.47;;;;;;;;;;4984384;28;20043;-58
2021/12/12 10:27:10;;;;;;;2.53;2.17;;;;;;;;;;5008626;28;20045;-56
2021/12/12 10:30:02;;;;;;;3.50;2.58;;;;;;;;;;4990425;28;20404;-59
2021/12/12 10:32:35;;;;;;;2.90;2.40;;;;;;;;;;5011286;28;20053;-57
2021/12/12 10:35:13;;;;;;;5.72;2.88;;;;;;;;;;4989317;28;20042;-51
2021/12/12 10:37:59;;;;;;;4.15;2.35;;;;;;;;;;4979746;28;20405;-57
2021/12/12 10:40:35;;;;;;;2.63;2.35;;;;;;;;;;4988219;28;20045;-56
2021/12/12 10:43:07;;;;;;;3.80;2.60;;;;;;;;;;5010477;28;20054;-57
2021/12/12 10:45:42;;;;;;;7.63;5.88;;;;;;;;;;4984993;28;20053;-57
2021/12/12 10:48:15;;;;;;;3.47;3.10;;;;;;;;;;4991482;28;20037;-57
2021/12/12 10:51:05;;;;;;;2.63;2.40;;;;;;;;;;5017282;28;20041;-57
2021/12/12 10:53:40;;;;;;;5.10;2.80;;;;;;;;;;5015682;28;20052;-56
2021/12/12 10:56:13;;;;;;;2.92;2.35;;;;;;;;;;5016624;28;20060;-57
2021/12/12 10:58:46;;;;;;;4.78;3.33;;;;;;;;;;5023084;28;20041;-58
2021/12/12 11:01:17;;;;;;;3.47;3.17;;;;;;;;;;5021491;28;20132;-58
2021/12/12 11:03:53;;;;;;;3.67;2.65;;;;;;;;;;4998146;28;20042;-57
2021/12/12 11:06:32;;;;;;;3.15;2.58;;;;;;;;;;5016653;28;20042;-58
2021/12/12 11:09:06;;;;;;;4.32;2.83;;;;;;;;;;5019945;28;20034;-57
2021/12/12 11:11:45;;;;;;;2.60;2.40;;;;;;;;;;5007755;28;20084;-57
2021/12/12 11:14:42;;;;;;;3.65;2.97;;;;;;;;;;5000121;28;20057;-56
2021/12/12 11:17:19;;;;;;;5.18;3.53;;;;;;;;;;4996566;28;20042;-52
2021/12/12 11:19:59;;;;;;;2.60;2.40;;;;;;;;;;4995813;28;20046;-60
2021/12/12 11:22:31;;;;;;;9.23;5.70;;;;;;;;;;5010052;28;20400;-55
2021/12/12 11:25:30;;;;;;;9.95;6.13;;;;;;;;;;5007530;28;20515;-54
2021/12/12 11:28:02;;;;;;;19.98;13.38;;;;;;;;;;5027368;28;20145;-56
2021/12/12 11:30:44;;;;;;;15.90;10.23;;;;;;;;;;5025919;28;20049;-57
2021/12/12 11:33:14;;;;;;;8.45;6.03;;;;;;;;;;5025528;28;20092;-57
2021/12/12 11:35:45;;;;;;;5.00;4.00;;;;;;;;;;5019853;28;20076;-58
2021/12/12 11:38:35;;;;;;;6.95;4.55;;;;;;;;;;5000171;28;20401;-59
2021/12/12 11:41:11;;;;;;;3.58;3.08;;;;;;;;;;5015469;28;20033;-58
2021/12/12 11:43:42;;;;;;;12.95;8.25;;;;;;;;;;5018219;28;20038;-57
2021/12/12 11:46:19;;;;;;;9.10;4.82;;;;;;;;;;5000668;28;20100;-59
2021/12/12 11:49:11;;;;;;;4.85;3.70;;;;;;;;;;5019982;28;20443;-58
2021/12/12 11:51:50;;;;;;;3.05;2.42;;;;;;;;;;5019357;28;20054;-58
2021/12/12 11:54:32;;;;;;;2.85;2.58;;;;;;;;;;5015120;28;20100;-58
2021/12/12 11:57:07;;;;;;;2.97;2.70;;;;;;;;;;5013605;28;20092;-54
2021/12/12 11:59:45;;;;;;;;;;;;;;;;;;5019657;28;20033;-55
2021/12/12 12:02:34;;;;;;;4.40;2.50;;;;;;;;;;5020500;28;19929;-56
2021/12/12 12:05:06;;;;;;;4.35;3.13;;;;;;;;;;5023359;28;20041;-53
2021/12/12 12:07:59;;;;;;;5.22;2.95;;;;;;;;;;5018620;28;20034;-56
2021/12/12 12:10:54;;;;;;;5.68;5.00;;;;;;;;;;5011771;28;20061;-58
2021/12/12 12:13:48;;;;;;;4.53;3.42;;;;;;;;;;5011557;28;20057;-57
2021/12/12 12:16:30;;;;;;;7.28;4.97;;;;;;;;;;4997474;28;20044;-57
2021/12/12 12:19:58;;;;;;;6.10;3.50;;;;;;;;;;4977798;28;20042;-56
2021/12/12 12:22:46;;;;;;;5.25;2.92;;;;;;;;;;4939476;29;20511;-58
2021/12/12 12:26:50;;;;;;;5.63;3.78;;;;;;;;;;4992400;28;20046;-57
2021/12/12 12:28:29;;;;;;;4.50;3.88;;;;;;;;;;4979649;28;20058;-58
2021/12/12 12:31:02;;;;;;;6.80;3.47;;;;;;;;;;4995973;28;20588;-55
2021/12/12 12:34:11;;;;;;;4.65;3.63;;;;;;;;;;4997419;28;20049;-56
2021/12/12 12:36:40;;;;;;;4.43;3.45;;;;;;;;;;5001632;28;20543;-57
2021/12/12 12:39:44;;;;;;;3.47;3.00;;;;;;;;;;5010021;28;20104;-57
2021/12/12 12:42:48;;;;;;;4.20;3.63;;;;;;;;;;4997320;28;20054;-50
2021/12/12 12:45:46;;;;;;;6.07;3.90;;;;;;;;;;4995737;28;20054;-49
2021/12/12 12:48:13;;;;;;;9.88;4.63;;;;;;;;;;4996265;28;20526;-50
2021/12/12 12:51:02;;;;;;;6.40;2.67;;;;;;;;;;4993787;28;20089;-49
2021/12/12 12:53:59;;;;;;;3.53;3.22;;;;;;;;;;4994781;28;20054;-58
2021/12/12 12:56:50;;;;;;;3.95;2.85;;;;;;;;;;5000276;28;20037;-57
2021/12/12 12:59:38;;;;;;;3.55;2.80;;;;;;;;;;5015428;28;20041;-55
2021/12/12 13:02:15;;;;;;;3.55;3.25;;;;;;;;;;5015778;28;20042;-47
2021/12/12 13:05:00;;;;;;;6.55;2.63;;;;;;;;;;5017017;28;20046;-57
2021/12/12 13:08:04;;;;;;;3.42;2.92;;;;;;;;;;5020436;28;20400;-58
2021/12/12 13:10:33;;;;;;;2.60;2.40;;;;;;;;;;5020534;28;20408;-61
2021/12/12 13:13:42;;;;;;;4.07;3.67;;;;;;;;;;5022797;28;20041;-55
2021/12/12 13:16:21;;;;;;;7.72;2.80;;;;;;;;;;4910273;29;20044;-56
2021/12/12 13:18:58;;;;;;;3.20;2.90;;;;;;;;;;5010590;28;20060;-58
2021/12/12 13:21:45;;;;;;;2.70;2.50;;;;;;;;;;5020679;28;20045;-59
2021/12/12 13:24:21;;;;;;;3.83;3.33;;;;;;;;;;5022008;28;20045;-58
2021/12/12 13:27:04;;;;;;;3.25;2.58;;;;;;;;;;5019714;28;20041;-59
2021/12/12 13:29:45;;;;;;;7.55;3.10;;;;;;;;;;5012483;28;20084;-57
2021/12/12 13:32:20;;;;;;;2.88;2.60;;;;;;;;;;5018160;28;20417;-59
2021/12/12 13:35:01;;;;;;;4.20;3.88;;;;;;;;;;4995763;28;20050;-59
2021/12/12 13:37:36;;;;;;;4.25;3.60;;;;;;;;;;4999614;28;20038;-62
2021/12/12 13:40:07;;;;;;;3.78;3.38;;;;;;;;;;5003425;28;20435;-59
2021/12/12 13:43:02;;;;;;;3.92;3.05;;;;;;;;;;5018808;28;20038;-59
2021/12/12 13:45:48;;;;;;;3.42;2.80;;;;;;;;;;5010962;28;20046;-61
2021/12/12 13:48:30;;;;;;;3.80;2.95;;;;;;;;;;4994890;28;20053;-60
2021/12/12 13:51:18;;;;;;;3.28;2.72;;;;;;;;;;5016953;28;20048;-59
2021/12/12 13:54:00;;;;;;;3.33;3.00;;;;;;;;;;5014839;28;20046;-57
2021/12/12 13:56:56;;;;;;;4.85;3.05;;;;;;;;;;5012767;28;20034;-58
2021/12/12 13:59:46;;;;;;;4.75;3.65;;;;;;;;;;4991409;28;20140;-59
2021/12/12 14:02:15;;;;;;;3.95;3.55;;;;;;;;;;4986496;28;20078;-59
2021/12/12 14:05:06;;;;;;;4.57;3.80;;;;;;;;;;5005181;28;20041;-59
2021/12/12 14:07:57;;;;;;;4.03;3.10;;;;;;;;;;5003815;28;20042;-63
2021/12/12 14:10:26;;;;;;;3.75;3.35;;;;;;;;;;5006159;28;20575;-63
2021/12/12 14:12:58;;;;;;;4.90;3.53;;;;;;;;;;5004732;28;20408;-62
2021/12/12 14:15:29;;;;;;;5.10;3.83;;;;;;;;;;5008411;28;20046;-62
2021/12/12 14:17:58;;;;;;;6.35;4.55;;;;;;;;;;5009026;28;20092;-62
2021/12/12 14:20:36;;;;;;;5.50;4.40;;;;;;;;;;5010312;28;20120;-63
2021/12/12 14:23:10;;;;;;;6.38;5.57;;;;;;;;;;5008579;28;20042;-62
2021/12/12 14:25:37;;;;;;;5.25;4.00;;;;;;;;;;5009542;28;20046;-62
2021/12/12 14:28:04;;;;;;;3.50;3.08;;;;;;;;;;4992124;28;20359;-62
2021/12/12 14:30:34;;;;;;;2.85;2.38;;;;;;;;;;5010555;28;20045;-62
2021/12/12 14:33:10;;;;;;;3.60;2.72;;;;;;;;;;5010129;28;20119;-62
2021/12/12 14:35:41;;;;;;;3.22;2.35;;;;;;;;;;4983350;28;20471;-63
2021/12/12 14:38:10;;;;;;;3.42;2.92;;;;;;;;;;5005735;28;20035;-63
2021/12/12 14:40:45;;;;;;;2.72;2.40;;;;;;;;;;5013820;28;20124;-63
2021/12/12 14:43:20;;;;;;;4.07;2.75;;;;;;;;;;5012239;28;20108;-61
2021/12/12 14:45:51;;;;;;;3.30;3.00;;;;;;;;;;4982209;28;20057;-61
2021/12/12 14:48:30;;;;;;;3.28;2.97;;;;;;;;;;5008319;28;20505;-61
2021/12/12 14:51:05;;;;;;;3.95;3.55;;;;;;;;;;5011389;28;20050;-60
2021/12/12 14:53:42;;;;;;;7.38;4.82;;;;;;;;;;5007194;28;20049;-61
2021/12/12 14:56:32;;;;;;;6.20;5.60;;;;;;;;;;4993061;28;20065;-60
2021/12/12 14:59:02;;;;;;;6.65;5.70;;;;;;;;;;5008830;28;20038;-61
2021/12/12 15:02:18;;;;;;;5.00;4.43;;;;;;;;;;5010977;28;20042;-61
2021/12/12 15:04:55;;;;;;;6.15;3.35;;;;;;;;;;4991545;28;20042;-61
2021/12/12 15:07:24;;;;;;;4.78;3.92;;;;;;;;;;5009879;28;20140;-61
2021/12/12 15:09:55;;;;;;;4.47;3.45;;;;;;;;;;5011093;28;20042;-61
2021/12/12 15:12:28;;;;;;;4.88;3.65;;;;;;;;;;5010788;28;20505;-61
2021/12/12 15:15:00;;;;;;;5.60;4.07;;;;;;;;;;4993020;28;20045;-61
2021/12/12 15:17:28;;;;;;;7.22;4.90;;;;;;;;;;5008903;28;20103;-60
2021/12/12 15:20:03;;;;;;;11.05;7.05;;;;;;;;;;4989316;28;20064;-60
2021/12/12 15:22:39;;;;;;;9.85;8.15;;;;;;;;;;5011854;28;20389;-60
2021/12/12 15:25:26;;;;;;;8.90;7.15;;;;;;;;;;5012027;28;20100;-60
2021/12/12 15:27:54;;;;;;;9.02;6.43;;;;;;;;;;5008984;28;20064;-60
2021/12/12 15:30:25;;;;;;;9.80;5.72;;;;;;;;;;4986086;28;20047;-60
2021/12/12 15:32:57;;;;;;;6.65;4.50;;;;;;;;;;4987569;28;20050;-61
2021/12/12 15:35:32;;;;;;;8.90;5.85;;;;;;;;;;5010980;28;20046;-60
2021/12/12 15:37:59;;;;;;;8.77;6.90;;;;;;;;;;5008331;28;20042;-60
2021/12/12 15:40:36;;;;;;;6.60;5.30;;;;;;;;;;5010463;28;20050;-61
2021/12/12 15:43:09;;;;;;;5.82;4.80;;;;;;;;;;5011134;28;20046;-61
2021/12/12 15:45:43;;;;;;;9.27;8.05;;;;;;;;;;4993811;28;20054;-60
2021/12/12 15:48:15;;;;;;;11.00;9.52;;;;;;;;;;5009611;28;20038;-59
2021/12/12 15:50:43;;;;;;;13.07;7.75;;;;;;;;;;5008966;28;20042;-59
2021/12/12 15:53:23;;;;;;;6.55;5.22;;;;;;;;;;5010798;28;20046;-60
2021/12/12 15:56:08;;;;;;;10.38;5.65;;;;;;;;;;5011879;28;20038;-61
2021/12/12 15:58:45;;;;;;;14.23;9.50;;;;;;;;;;5017140;28;20050;-59